createdAt,value
2022-09-26T00:00:22.291Z,0.00
2022-09-26T00:01:22.385Z,0.00
2022-09-26T00:02:25.290Z,0.00
2022-09-26T00:03:25.263Z,0.00
2022-09-26T00:04:23.615Z,0.00
2022-09-26T00:05:22.270Z,0.00
2022-09-26T00:06:22.220Z,0.00
2022-09-26T00:07:22.204Z,0.00
2022-09-26T00:08:22.196Z,0.00
2022-09-26T00:09:22.180Z,0.00
2022-09-26T00:10:22.156Z,0.00
2022-09-26T00:11:22.172Z,0.00
2022-09-26T00:12:22.128Z,0.00
2022-09-26T00:13:22.125Z,0.00
2022-09-26T00:14:22.096Z,0.00
2022-09-26T00:15:22.089Z,0.00
2022-09-26T00:16:22.164Z,0.00
2022-09-26T00:17:22.066Z,0.00
2022-09-26T00:18:22.046Z,0.00
2022-09-26T00:19:22.040Z,0.00
2022-09-26T00:20:22.047Z,0.00
2022-09-26T00:21:22.007Z,0.00
2022-09-26T00:22:25.026Z,0.00
2022-09-26T00:23:24.998Z,0.00
2022-09-26T00:24:21.967Z,0.00
2022-09-26T00:25:22.017Z,0.00
2022-09-26T00:26:21.940Z,0.00
2022-09-26T00:27:21.929Z,0.00
2022-09-26T00:28:21.917Z,0.00
2022-09-26T00:29:21.906Z,0.00
2022-09-26T00:30:21.941Z,0.00
2022-09-26T00:31:22.074Z,0.00
2022-09-26T00:32:21.851Z,0.00
2022-09-26T00:33:21.850Z,0.00
2022-09-26T00:34:21.833Z,0.00
2022-09-26T00:35:21.821Z,0.00
2022-09-26T00:36:26.858Z,0.00
2022-09-26T00:37:22.800Z,0.00
2022-09-26T00:38:21.779Z,0.00
2022-09-26T00:39:21.771Z,0.00
2022-09-26T00:40:21.777Z,0.00
2022-09-26T00:41:21.742Z,0.00
2022-09-26T00:42:24.755Z,0.00
2022-09-26T00:43:24.733Z,0.00
2022-09-26T00:44:21.707Z,0.00
2022-09-26T00:45:21.854Z,0.00
2022-09-26T00:46:21.686Z,0.00
2022-09-26T00:47:21.662Z,0.00
2022-09-26T00:48:21.634Z,0.00
2022-09-26T00:49:21.624Z,0.00
2022-09-26T00:50:21.616Z,0.00
2022-09-26T00:51:21.633Z,0.00
2022-09-26T00:52:21.585Z,0.00
2022-09-26T00:53:21.573Z,0.00
2022-09-26T00:54:21.560Z,0.00
2022-09-26T00:55:21.575Z,0.00
2022-09-26T00:56:21.536Z,0.00
2022-09-26T00:57:21.553Z,0.00
2022-09-26T00:58:21.497Z,0.00
2022-09-26T00:59:21.488Z,0.00
2022-09-26T01:00:21.647Z,0.00
2022-09-26T01:01:21.534Z,0.00
2022-09-26T01:02:24.512Z,0.00
2022-09-26T01:03:24.456Z,0.00
2022-09-26T01:04:21.425Z,0.00
2022-09-26T01:05:21.407Z,0.00
2022-09-26T01:06:21.427Z,0.00
2022-09-26T01:07:21.381Z,0.00
2022-09-26T01:08:21.386Z,0.00
2022-09-26T01:09:21.359Z,0.00
2022-09-26T01:10:21.339Z,0.00
2022-09-26T01:11:21.360Z,0.00
2022-09-26T01:12:21.395Z,0.00
2022-09-26T01:13:21.327Z,0.00
2022-09-26T01:14:21.289Z,0.00
2022-09-26T01:15:21.273Z,0.00
2022-09-26T01:16:21.337Z,0.00
2022-09-26T01:17:21.242Z,0.00
2022-09-26T01:18:21.261Z,0.00
2022-09-26T01:19:21.221Z,0.00
2022-09-26T01:20:21.361Z,0.00
2022-09-26T01:21:21.194Z,0.00
2022-09-26T01:22:24.172Z,0.00
2022-09-26T01:23:24.184Z,0.00
2022-09-26T01:24:21.143Z,0.00
2022-09-26T01:25:21.142Z,0.00
2022-09-26T01:26:21.153Z,0.00
2022-09-26T01:27:21.120Z,0.00
2022-09-26T01:28:21.106Z,0.00
2022-09-26T01:29:21.085Z,0.00
2022-09-26T01:30:21.066Z,0.00
2022-09-26T01:31:21.124Z,0.00
2022-09-26T01:32:21.044Z,0.00
2022-09-26T01:33:21.024Z,0.00
2022-09-26T01:34:21.015Z,0.00
2022-09-26T01:35:21.007Z,0.00
2022-09-26T01:36:21.145Z,0.00
2022-09-26T01:37:20.987Z,0.00
2022-09-26T01:38:20.966Z,0.00
2022-09-26T01:39:20.947Z,0.00
2022-09-26T01:40:20.976Z,0.00
2022-09-26T01:41:20.926Z,0.00
2022-09-26T01:42:23.926Z,0.00
2022-09-26T01:43:23.968Z,0.00
2022-09-26T01:44:20.877Z,0.00
2022-09-26T01:45:20.882Z,0.00
2022-09-26T01:46:20.896Z,0.00
2022-09-26T01:47:20.849Z,0.00
2022-09-26T01:48:20.831Z,0.00
2022-09-26T01:49:20.840Z,0.00
2022-09-26T01:50:20.800Z,0.00
2022-09-26T01:51:20.789Z,0.00
2022-09-26T01:52:20.781Z,0.00
2022-09-26T01:53:20.759Z,0.00
2022-09-26T01:54:20.770Z,0.00
2022-09-26T01:55:20.730Z,0.00
2022-09-26T01:56:20.718Z,0.00
2022-09-26T01:57:20.710Z,0.00
2022-09-26T01:58:20.716Z,0.00
2022-09-26T01:59:20.674Z,0.00
2022-09-26T02:00:20.663Z,0.00
2022-09-26T02:01:20.731Z,0.00
2022-09-26T02:02:23.684Z,0.00
2022-09-26T02:03:23.701Z,0.00
2022-09-26T02:04:20.606Z,0.00
2022-09-26T02:05:20.592Z,0.00
2022-09-26T02:06:20.584Z,0.00
2022-09-26T02:07:20.563Z,0.00
2022-09-26T02:08:20.552Z,0.00
2022-09-26T02:09:20.593Z,0.00
2022-09-26T02:10:20.526Z,0.00
2022-09-26T02:11:20.515Z,0.00
2022-09-26T02:12:20.492Z,0.00
2022-09-26T02:13:20.485Z,0.00
2022-09-26T02:14:20.475Z,0.00
2022-09-26T02:15:20.486Z,0.00
2022-09-26T02:16:20.501Z,0.00
2022-09-26T02:17:20.431Z,0.00
2022-09-26T02:18:20.436Z,0.00
2022-09-26T02:19:20.407Z,0.00
2022-09-26T02:20:20.408Z,0.00
2022-09-26T02:21:20.376Z,0.00
2022-09-26T02:22:23.367Z,0.00
2022-09-26T02:23:23.367Z,0.00
2022-09-26T02:24:20.366Z,0.00
2022-09-26T02:25:20.319Z,0.00
2022-09-26T02:26:20.307Z,0.00
2022-09-26T02:27:20.287Z,0.00
2022-09-26T02:28:20.280Z,0.00
2022-09-26T02:29:20.270Z,0.00
2022-09-26T02:30:20.270Z,0.00
2022-09-26T02:31:20.308Z,0.00
2022-09-26T02:32:20.307Z,0.00
2022-09-26T02:33:20.210Z,0.00
2022-09-26T02:34:20.191Z,0.00
2022-09-26T02:35:20.209Z,0.00
2022-09-26T02:36:20.167Z,0.00
2022-09-26T02:37:20.150Z,0.00
2022-09-26T02:38:20.141Z,0.00
2022-09-26T02:39:20.170Z,0.00
2022-09-26T02:40:20.162Z,0.00
2022-09-26T02:41:20.091Z,0.00
2022-09-26T02:42:23.091Z,0.00
2022-09-26T02:43:23.095Z,0.00
2022-09-26T02:44:20.062Z,0.00
2022-09-26T02:45:20.072Z,0.00
2022-09-26T02:46:20.085Z,0.00
2022-09-26T02:47:20.042Z,0.00
2022-09-26T02:48:20.004Z,0.00
2022-09-26T02:49:19.993Z,0.00
2022-09-26T02:50:20.018Z,0.00
2022-09-26T02:51:19.965Z,0.00
2022-09-26T02:52:19.957Z,0.00
2022-09-26T02:53:19.934Z,0.00
2022-09-26T02:54:19.922Z,0.00
2022-09-26T02:55:19.956Z,0.00
2022-09-26T02:56:19.895Z,0.00
2022-09-26T02:57:19.888Z,0.00
2022-09-26T02:58:19.874Z,0.00
2022-09-26T02:59:19.865Z,0.00
2022-09-26T03:00:19.849Z,0.00
2022-09-26T03:01:20.025Z,0.00
2022-09-26T03:02:22.816Z,0.00
2022-09-26T03:03:22.848Z,0.00
2022-09-26T03:04:19.825Z,0.00
2022-09-26T03:05:19.767Z,0.00
2022-09-26T03:06:19.818Z,0.00
2022-09-26T03:07:19.738Z,0.00
2022-09-26T03:08:19.738Z,0.00
2022-09-26T03:09:19.729Z,0.00
2022-09-26T03:10:19.698Z,0.00
2022-09-26T03:11:19.689Z,0.00
2022-09-26T03:12:19.710Z,0.00
2022-09-26T03:13:19.729Z,0.00
2022-09-26T03:14:19.648Z,0.00
2022-09-26T03:15:19.646Z,0.00
2022-09-26T03:16:19.694Z,0.00
2022-09-26T03:17:19.612Z,0.00
2022-09-26T03:18:19.599Z,0.00
2022-09-26T03:19:19.611Z,0.00
2022-09-26T03:20:19.571Z,0.00
2022-09-26T03:21:19.561Z,0.00
2022-09-26T03:22:22.584Z,0.00
2022-09-26T03:23:22.534Z,0.00
2022-09-26T03:24:19.511Z,0.00
2022-09-26T03:25:19.501Z,0.00
2022-09-26T03:26:19.483Z,0.00
2022-09-26T03:27:19.482Z,0.00
2022-09-26T03:28:19.524Z,0.00
2022-09-26T03:29:19.443Z,0.00
2022-09-26T03:30:19.435Z,0.00
2022-09-26T03:31:19.468Z,0.00
2022-09-26T03:32:19.423Z,0.00
2022-09-26T03:33:19.385Z,0.00
2022-09-26T03:34:19.397Z,0.00
2022-09-26T03:35:19.386Z,0.00
2022-09-26T03:36:19.353Z,0.00
2022-09-26T03:37:19.336Z,0.00
2022-09-26T03:38:19.335Z,0.00
2022-09-26T03:39:19.366Z,0.00
2022-09-26T03:40:19.354Z,0.00
2022-09-26T03:41:19.274Z,0.00
2022-09-26T03:42:22.258Z,0.00
2022-09-26T03:43:22.261Z,0.00
2022-09-26T03:44:19.238Z,0.00
2022-09-26T03:45:19.289Z,0.00
2022-09-26T03:46:19.237Z,0.00
2022-09-26T03:47:19.199Z,0.00
2022-09-26T03:48:19.187Z,0.00
2022-09-26T03:49:19.171Z,0.00
2022-09-26T03:50:19.149Z,0.00
2022-09-26T03:51:19.171Z,0.00
2022-09-26T03:52:19.152Z,0.00
2022-09-26T03:53:19.119Z,0.00
2022-09-26T03:54:19.101Z,0.00
2022-09-26T03:55:19.089Z,0.00
2022-09-26T03:56:19.082Z,0.00
2022-09-26T03:57:19.103Z,0.00
2022-09-26T03:58:19.052Z,0.00
2022-09-26T03:59:19.031Z,0.00
2022-09-26T04:00:19.015Z,0.00
2022-09-26T04:01:19.059Z,0.00
2022-09-26T04:02:22.081Z,0.00
2022-09-26T04:03:21.989Z,0.00
2022-09-26T04:04:18.963Z,0.00
2022-09-26T04:05:18.944Z,0.00
2022-09-26T04:06:18.934Z,0.00
2022-09-26T04:07:18.928Z,0.00
2022-09-26T04:08:18.944Z,0.00
2022-09-26T04:09:19.295Z,0.00
2022-09-26T04:10:18.911Z,0.00
2022-09-26T04:11:18.865Z,0.00
2022-09-26T04:12:18.856Z,0.00
2022-09-26T04:13:46.637Z,0.00
2022-09-26T04:14:19.836Z,0.00
2022-09-26T04:15:18.836Z,0.00
2022-09-26T04:16:18.856Z,0.00
2022-09-26T04:17:18.787Z,0.00
2022-09-26T04:18:18.777Z,0.00
2022-09-26T04:19:18.754Z,0.00
2022-09-26T04:20:18.777Z,0.00
2022-09-26T04:21:18.734Z,0.00
2022-09-26T04:22:21.728Z,0.00
2022-09-26T04:23:21.718Z,0.00
2022-09-26T04:24:18.686Z,0.00
2022-09-26T04:25:18.730Z,0.00
2022-09-26T04:26:22.951Z,0.00
2022-09-26T04:27:18.666Z,0.00
2022-09-26T04:28:18.629Z,0.00
2022-09-26T04:29:18.620Z,0.00
2022-09-26T04:30:18.621Z,0.00
2022-09-26T04:31:18.632Z,0.00
2022-09-26T04:32:18.580Z,0.00
2022-09-26T04:33:18.600Z,0.00
2022-09-26T04:34:21.307Z,0.00
2022-09-26T04:35:19.541Z,0.00
2022-09-26T04:36:18.552Z,0.00
2022-09-26T04:37:18.513Z,0.00
2022-09-26T04:38:18.500Z,0.00
2022-09-26T04:39:18.481Z,0.00
2022-09-26T04:40:18.526Z,0.00
2022-09-26T04:41:18.471Z,0.00
2022-09-26T04:42:21.445Z,0.00
2022-09-26T04:43:21.442Z,0.00
2022-09-26T04:44:18.413Z,0.00
2022-09-26T04:45:18.397Z,0.00
2022-09-26T04:46:21.603Z,0.00
2022-09-26T04:47:18.375Z,0.00
2022-09-26T04:48:18.373Z,0.00
2022-09-26T04:49:18.413Z,0.00
2022-09-26T04:50:18.332Z,0.00
2022-09-26T04:51:18.317Z,0.00
2022-09-26T04:52:18.312Z,0.00
2022-09-26T04:53:18.296Z,0.00
2022-09-26T04:54:18.274Z,4.00
2022-09-26T04:55:18.299Z,4.00
2022-09-26T04:56:18.267Z,0.00
2022-09-26T04:57:19.863Z,4.00
2022-09-26T04:58:18.256Z,4.00
2022-09-26T04:59:18.218Z,4.00
2022-09-26T05:00:18.208Z,4.00
2022-09-26T05:01:18.335Z,4.00
2022-09-26T05:02:21.197Z,8.00
2022-09-26T05:03:21.335Z,4.00
2022-09-26T05:04:18.138Z,8.00
2022-09-26T05:05:18.121Z,8.00
2022-09-26T05:06:18.116Z,12.00
2022-09-26T05:07:18.099Z,12.00
2022-09-26T05:08:18.079Z,16.00
2022-09-26T05:09:18.097Z,16.00
2022-09-26T05:10:18.058Z,16.00
2022-09-26T05:11:18.042Z,16.00
2022-09-26T05:12:18.031Z,16.00
2022-09-26T05:13:18.011Z,16.00
2022-09-26T05:14:18.160Z,20.00
2022-09-26T05:15:17.982Z,20.00
2022-09-26T05:16:18.021Z,20.00
2022-09-26T05:17:17.958Z,20.00
2022-09-26T05:18:17.949Z,20.00
2022-09-26T05:19:17.933Z,20.00
2022-09-26T05:20:17.943Z,20.00
2022-09-26T05:21:17.942Z,28.00
2022-09-26T05:22:20.902Z,28.00
2022-09-26T05:23:20.894Z,32.00
2022-09-26T05:24:17.883Z,36.00
2022-09-26T05:25:17.874Z,40.00
2022-09-26T05:26:17.996Z,40.00
2022-09-26T05:27:17.824Z,40.00
2022-09-26T05:28:17.822Z,40.00
2022-09-26T05:29:17.943Z,44.00
2022-09-26T05:30:17.789Z,48.00
2022-09-26T05:31:17.858Z,56.00
2022-09-26T05:32:17.786Z,76.00
2022-09-26T05:33:17.747Z,92.00
2022-09-26T05:34:24.734Z,108.00
2022-09-26T05:35:17.704Z,128.00
2022-09-26T05:36:17.696Z,144.00
2022-09-26T05:37:17.853Z,156.00
2022-09-26T05:38:17.671Z,164.00
2022-09-26T05:39:17.652Z,180.00
2022-09-26T05:40:17.718Z,216.00
2022-09-26T05:41:17.632Z,252.00
2022-09-26T05:42:20.636Z,280.00
2022-09-26T05:43:20.616Z,308.00
2022-09-26T05:44:17.586Z,332.00
2022-09-26T05:45:17.575Z,344.00
2022-09-26T05:46:17.625Z,336.00
2022-09-26T05:47:17.709Z,332.00
2022-09-26T05:48:17.689Z,344.00
2022-09-26T05:49:17.516Z,380.00
2022-09-26T05:50:17.506Z,416.00
2022-09-26T05:51:17.490Z,452.00
2022-09-26T05:52:17.479Z,476.00
2022-09-26T05:53:17.491Z,500.00
2022-09-26T05:54:17.608Z,516.00
2022-09-26T05:55:17.428Z,512.00
2022-09-26T05:56:19.015Z,484.00
2022-09-26T05:57:17.409Z,452.00
2022-09-26T05:58:17.399Z,420.00
2022-09-26T05:59:17.379Z,388.00
2022-09-26T06:00:17.413Z,368.00
2022-09-26T06:01:17.394Z,372.00
2022-09-26T06:02:21.171Z,384.00
2022-09-26T06:03:20.364Z,392.00
2022-09-26T06:04:17.312Z,400.00
2022-09-26T06:05:17.292Z,396.00
2022-09-26T06:06:17.291Z,396.00
2022-09-26T06:07:17.273Z,400.00
2022-09-26T06:08:17.342Z,400.00
2022-09-26T06:09:17.281Z,396.00
2022-09-26T06:10:17.295Z,404.00
2022-09-26T06:11:17.256Z,420.00
2022-09-26T06:12:17.205Z,444.00
2022-09-26T06:13:17.192Z,472.00
2022-09-26T06:14:17.188Z,500.00
2022-09-26T06:15:17.155Z,520.00
2022-09-26T06:16:17.239Z,536.00
2022-09-26T06:17:17.325Z,556.00
2022-09-26T06:18:17.133Z,568.00
2022-09-26T06:19:22.035Z,568.00
2022-09-26T06:20:18.096Z,564.00
2022-09-26T06:21:17.081Z,556.00
2022-09-26T06:22:20.103Z,560.00
2022-09-26T06:23:20.069Z,588.00
2022-09-26T06:24:17.055Z,620.00
2022-09-26T06:25:17.043Z,632.00
2022-09-26T06:26:17.018Z,648.00
2022-09-26T06:27:17.037Z,684.00
2022-09-26T06:28:17.151Z,692.00
2022-09-26T06:29:17.008Z,668.00
2022-09-26T06:30:16.960Z,684.00
2022-09-26T06:31:17.129Z,700.00
2022-09-26T06:32:16.929Z,724.00
2022-09-26T06:33:16.919Z,748.00
2022-09-26T06:34:16.930Z,768.00
2022-09-26T06:35:16.891Z,852.00
2022-09-26T06:36:16.899Z,900.00
2022-09-26T06:37:16.859Z,936.00
2022-09-26T06:38:16.853Z,960.00
2022-09-26T06:39:17.033Z,1024.00
2022-09-26T06:40:16.880Z,1052.00
2022-09-26T06:41:16.814Z,1044.00
2022-09-26T06:42:19.812Z,1072.00
2022-09-26T06:43:19.958Z,1100.00
2022-09-26T06:44:16.774Z,1112.00
2022-09-26T06:45:16.754Z,1136.00
2022-09-26T06:46:16.800Z,1152.00
2022-09-26T06:47:16.828Z,1152.00
2022-09-26T06:48:19.876Z,1160.00
2022-09-26T06:49:17.878Z,1184.00
2022-09-26T06:50:16.728Z,1212.00
2022-09-26T06:51:16.681Z,1252.00
2022-09-26T06:52:16.668Z,1280.00
2022-09-26T06:53:16.656Z,1292.00
2022-09-26T06:54:16.644Z,1292.00
2022-09-26T06:55:16.781Z,1312.00
2022-09-26T06:56:16.612Z,1360.00
2022-09-26T06:57:16.600Z,1408.00
2022-09-26T06:58:16.618Z,1448.00
2022-09-26T06:59:16.687Z,1488.00
2022-09-26T07:00:16.633Z,1524.00
2022-09-26T07:01:16.839Z,1556.00
2022-09-26T07:02:19.599Z,1584.00
2022-09-26T07:03:19.563Z,1608.00
2022-09-26T07:04:16.510Z,1636.00
2022-09-26T07:05:16.573Z,1680.00
2022-09-26T07:06:16.479Z,1732.00
2022-09-26T07:07:16.502Z,1784.00
2022-09-26T07:08:16.480Z,1832.00
2022-09-26T07:09:16.813Z,1868.00
2022-09-26T07:10:16.432Z,1920.00
2022-09-26T07:11:35.073Z,2032.00
2022-09-26T07:12:17.403Z,2100.00
2022-09-26T07:13:16.551Z,2092.00
2022-09-26T07:14:16.374Z,2264.00
2022-09-26T07:15:16.378Z,2356.00
2022-09-26T07:16:16.400Z,2512.00
2022-09-26T07:17:16.341Z,2608.00
2022-09-26T07:18:16.335Z,2712.00
2022-09-26T07:19:16.343Z,2800.00
2022-09-26T07:20:16.343Z,2884.00
2022-09-26T07:21:16.285Z,2932.00
2022-09-26T07:22:19.275Z,2976.00
2022-09-26T07:23:19.308Z,3028.00
2022-09-26T07:24:16.245Z,3092.00
2022-09-26T07:25:16.237Z,3128.00
2022-09-26T07:26:16.247Z,3148.00
2022-09-26T07:27:16.217Z,3160.00
2022-09-26T07:28:16.188Z,3144.00
2022-09-26T07:29:16.365Z,3120.00
2022-09-26T07:30:16.194Z,3072.00
2022-09-26T07:31:16.189Z,3008.00
2022-09-26T07:32:16.158Z,2916.00
2022-09-26T07:33:16.119Z,2800.00
2022-09-26T07:34:18.610Z,2644.00
2022-09-26T07:35:16.089Z,2484.00
2022-09-26T07:36:16.077Z,2308.00
2022-09-26T07:37:16.090Z,2148.00
2022-09-26T07:38:16.056Z,2040.00
2022-09-26T07:39:16.294Z,1948.00
2022-09-26T07:40:16.125Z,1920.00
2022-09-26T07:41:16.011Z,1940.00
2022-09-26T07:42:19.051Z,1976.00
2022-09-26T07:43:20.363Z,1916.00
2022-09-26T07:45:28.102Z,2072.00
2022-09-26T07:46:16.990Z,2120.00
2022-09-26T07:47:15.921Z,2148.00
2022-09-26T07:48:15.933Z,2232.00
2022-09-26T07:49:15.893Z,2264.00
2022-09-26T07:50:15.873Z,2268.00
2022-09-26T07:51:15.870Z,2260.00
2022-09-26T07:52:15.873Z,2264.00
2022-09-26T07:53:15.866Z,2300.00
2022-09-26T07:54:16.021Z,2380.00
2022-09-26T07:55:15.812Z,2496.00
2022-09-26T07:56:15.796Z,2596.00
2022-09-26T07:57:15.792Z,2672.00
2022-09-26T07:58:15.793Z,2740.00
2022-09-26T07:59:15.757Z,2832.00
2022-09-26T08:00:15.736Z,2960.00
2022-09-26T08:01:15.784Z,3080.00
2022-09-26T08:02:18.855Z,3212.00
2022-09-26T08:03:18.791Z,3312.00
2022-09-26T08:04:15.835Z,3436.00
2022-09-26T08:05:15.667Z,3492.00
2022-09-26T08:06:15.659Z,3492.00
2022-09-26T08:07:15.649Z,3560.00
2022-09-26T08:08:15.654Z,3632.00
2022-09-26T08:09:15.737Z,3712.00
2022-09-26T08:10:16.385Z,3736.00
2022-09-26T08:11:15.612Z,3808.00
2022-09-26T08:12:15.571Z,3856.00
2022-09-26T08:13:15.710Z,3876.00
2022-09-26T08:14:15.687Z,3936.00
2022-09-26T08:15:15.542Z,4020.00
2022-09-26T08:16:15.548Z,4092.00
2022-09-26T08:17:15.512Z,4108.00
2022-09-26T08:18:15.493Z,4160.00
2022-09-26T08:19:15.747Z,4192.00
2022-09-26T08:20:15.462Z,4208.00
2022-09-26T08:21:15.453Z,4248.00
2022-09-26T08:22:18.434Z,4228.00
2022-09-26T08:23:18.463Z,4212.00
2022-09-26T08:24:15.567Z,4196.00
2022-09-26T08:25:15.455Z,4192.00
2022-09-26T08:26:15.384Z,4200.00
2022-09-26T08:27:15.376Z,4216.00
2022-09-26T08:28:15.354Z,4204.00
2022-09-26T08:29:15.347Z,4216.00
2022-09-26T08:30:15.327Z,4240.00
2022-09-26T08:31:15.398Z,4264.00
2022-09-26T08:32:15.295Z,4288.00
2022-09-26T08:33:15.289Z,4300.00
2022-09-26T08:34:15.366Z,4304.00
2022-09-26T08:35:15.263Z,4292.00
2022-09-26T08:36:15.419Z,4264.00
2022-09-26T08:37:15.243Z,4228.00
2022-09-26T08:38:15.230Z,4184.00
2022-09-26T08:39:15.357Z,4152.00
2022-09-26T08:40:15.225Z,4124.00
2022-09-26T08:41:15.186Z,4100.00
2022-09-26T08:42:18.189Z,4064.00
2022-09-26T08:43:18.171Z,4036.00
2022-09-26T08:44:15.195Z,4004.00
2022-09-26T08:45:15.131Z,3960.00
2022-09-26T08:46:15.177Z,3932.00
2022-09-26T08:47:15.112Z,3900.00
2022-09-26T08:48:15.081Z,3884.00
2022-09-26T08:49:15.071Z,3872.00
2022-09-26T08:50:15.074Z,3856.00
2022-09-26T08:51:15.072Z,3848.00
2022-09-26T08:52:15.065Z,3844.00
2022-09-26T08:53:15.026Z,3840.00
2022-09-26T08:54:15.120Z,3832.00
2022-09-26T08:55:15.010Z,3832.00
2022-09-26T08:56:14.974Z,3828.00
2022-09-26T08:57:14.997Z,3824.00
2022-09-26T08:58:14.959Z,3828.00
2022-09-26T08:59:14.946Z,3844.00
2022-09-26T09:00:14.924Z,3872.00
2022-09-26T09:01:15.033Z,3920.00
2022-09-26T09:02:18.076Z,3960.00
2022-09-26T09:03:17.924Z,4000.00
2022-09-26T09:04:14.949Z,4020.00
2022-09-26T09:05:14.858Z,4004.00
2022-09-26T09:06:14.848Z,3944.00
2022-09-26T09:07:14.832Z,3872.00
2022-09-26T09:08:14.822Z,3796.00
2022-09-26T09:09:14.832Z,3764.00
2022-09-26T09:10:14.790Z,3752.00
2022-09-26T09:11:14.781Z,3732.00
2022-09-26T09:12:14.765Z,3724.00
2022-09-26T09:13:14.757Z,3720.00
2022-09-26T09:14:15.011Z,3716.00
2022-09-26T09:15:25.066Z,3708.00
2022-09-26T09:16:15.785Z,3704.00
2022-09-26T09:17:14.723Z,3712.00
2022-09-26T09:18:14.682Z,3732.00
2022-09-26T09:19:14.713Z,3784.00
2022-09-26T09:20:14.653Z,3824.00
2022-09-26T09:21:14.661Z,3852.00
2022-09-26T09:22:17.654Z,3856.00
2022-09-26T09:23:17.635Z,3832.00
2022-09-26T09:24:14.766Z,3756.00
2022-09-26T09:25:14.624Z,3780.00
2022-09-26T09:28:15.561Z,3812.00
2022-09-26T09:29:18.985Z,3888.00
2022-09-26T09:30:16.887Z,3976.00
2022-09-26T09:31:14.566Z,4028.00
2022-09-26T09:32:14.508Z,4084.00
2022-09-26T09:33:14.536Z,4156.00
2022-09-26T09:34:14.498Z,4244.00
2022-09-26T09:35:14.457Z,4320.00
2022-09-26T09:36:14.512Z,4400.00
2022-09-26T09:37:14.428Z,4488.00
2022-09-26T09:38:14.410Z,4596.00
2022-09-26T09:39:14.398Z,4700.00
2022-09-26T09:40:14.449Z,4756.00
2022-09-26T09:41:14.385Z,4800.00
2022-09-26T09:42:17.393Z,4808.00
2022-09-26T09:43:17.363Z,4816.00
2022-09-26T09:44:14.417Z,4784.00
2022-09-26T09:45:14.321Z,4712.00
2022-09-26T09:46:14.391Z,4624.00
2022-09-26T09:47:14.332Z,4548.00
2022-09-26T09:48:14.292Z,4472.00
2022-09-26T09:49:14.282Z,4432.00
2022-09-26T09:50:14.250Z,4416.00
2022-09-26T09:51:14.293Z,4420.00
2022-09-26T09:52:14.225Z,4356.00
2022-09-26T09:53:14.214Z,4328.00
2022-09-26T09:54:14.314Z,4440.00
2022-09-26T09:55:14.183Z,4548.00
2022-09-26T09:56:14.176Z,4676.00
2022-09-26T09:57:14.206Z,4768.00
2022-09-26T09:58:14.143Z,4804.00
2022-09-26T09:59:14.131Z,4772.00
2022-09-26T10:00:14.128Z,4688.00
2022-09-26T10:01:14.121Z,4644.00
2022-09-26T10:02:17.116Z,4500.00
2022-09-26T10:03:17.127Z,4512.00
2022-09-26T10:04:14.291Z,4612.00
2022-09-26T10:05:14.047Z,4724.00
2022-09-26T10:06:46.615Z,4788.00
2022-09-26T10:07:15.028Z,4884.00
2022-09-26T10:08:13.999Z,4944.00
2022-09-26T10:09:39.501Z,4912.00
2022-09-26T10:10:15.051Z,4924.00
2022-09-26T10:11:13.966Z,4792.00
2022-09-26T10:12:13.954Z,4604.00
2022-09-26T10:13:13.941Z,4112.00
2022-09-26T10:14:14.191Z,3400.00
2022-09-26T10:15:13.913Z,2896.00
2022-09-26T10:16:14.010Z,2460.00
2022-09-26T10:17:13.883Z,2148.00
2022-09-26T10:18:29.268Z,2060.00
2022-09-26T10:19:14.882Z,1900.00
2022-09-26T10:20:13.864Z,1804.00
2022-09-26T10:21:13.832Z,1628.00
2022-09-26T10:22:16.814Z,1716.00
2022-09-26T10:23:16.814Z,1764.00
2022-09-26T10:24:13.858Z,1732.00
2022-09-26T10:25:13.817Z,1752.00
2022-09-26T10:26:13.762Z,1876.00
2022-09-26T10:27:13.752Z,1688.00
2022-09-26T10:28:13.732Z,1544.00
2022-09-26T10:29:13.718Z,1484.00
2022-09-26T10:30:13.728Z,1568.00
2022-09-26T10:31:13.751Z,1696.00
2022-09-26T10:32:13.679Z,2108.00
2022-09-26T10:33:13.668Z,2380.00
2022-09-26T10:34:13.810Z,2496.00
2022-09-26T10:35:18.788Z,2332.00
2022-09-26T10:36:14.621Z,2384.00
2022-09-26T10:37:13.611Z,2516.00
2022-09-26T10:38:13.601Z,2900.00
2022-09-26T10:39:13.591Z,3032.00
2022-09-26T10:40:13.627Z,3484.00
2022-09-26T10:41:13.604Z,3592.00
2022-09-26T10:42:16.544Z,3656.00
2022-09-26T10:43:16.595Z,4096.00
2022-09-26T10:44:13.522Z,4472.00
2022-09-26T10:45:13.501Z,4780.00
2022-09-26T10:46:13.546Z,4956.00
2022-09-26T10:47:13.509Z,5108.00
2022-09-26T10:48:13.462Z,5112.00
2022-09-26T10:49:13.454Z,4788.00
2022-09-26T10:50:13.450Z,4936.00
2022-09-26T10:51:13.427Z,5372.00
2022-09-26T10:52:18.231Z,5160.00
2022-09-26T10:53:14.395Z,4804.00
2022-09-26T10:54:13.425Z,4856.00
2022-09-26T10:55:13.370Z,4896.00
2022-09-26T10:56:13.357Z,4792.00
2022-09-26T10:57:13.367Z,4704.00
2022-09-26T10:58:14.158Z,4472.00
2022-09-26T10:59:13.342Z,4696.00
2022-09-26T11:00:13.298Z,4728.00
2022-09-26T11:01:13.343Z,4672.00
2022-09-26T11:02:16.279Z,4496.00
2022-09-26T11:03:16.340Z,3976.00
2022-09-26T11:04:13.433Z,3420.00
2022-09-26T11:05:13.241Z,3760.00
2022-09-26T11:06:13.229Z,3844.00
2022-09-26T11:07:13.218Z,3724.00
2022-09-26T11:08:13.222Z,3604.00
2022-09-26T11:09:13.198Z,3068.00
2022-09-26T11:10:13.251Z,2432.00
2022-09-26T11:11:13.172Z,1940.00
2022-09-26T11:12:13.142Z,1648.00
2022-09-26T11:13:13.150Z,1688.00
2022-09-26T11:14:13.224Z,2300.00
2022-09-26T11:15:13.112Z,2984.00
2022-09-26T11:16:13.312Z,3172.00
2022-09-26T11:17:13.082Z,2932.00
2022-09-26T11:18:13.130Z,2616.00
2022-09-26T11:19:13.078Z,2432.00
2022-09-26T11:20:13.104Z,2000.00
2022-09-26T11:21:27.797Z,2016.00
2022-09-26T11:22:17.016Z,1984.00
2022-09-26T11:23:16.056Z,2076.00
2022-09-26T11:24:13.002Z,2428.00
2022-09-26T11:25:12.964Z,2956.00
2022-09-26T11:26:12.958Z,3900.00
2022-09-26T11:27:12.937Z,4224.00
2022-09-26T11:28:12.928Z,4180.00
2022-09-26T11:29:13.032Z,3744.00
2022-09-26T11:30:12.906Z,3812.00
2022-09-26T11:31:12.901Z,3864.00
2022-09-26T11:32:12.880Z,3412.00
2022-09-26T11:33:12.858Z,3632.00
2022-09-26T11:34:12.909Z,3580.00
2022-09-26T11:35:22.581Z,2620.00
2022-09-26T11:36:12.930Z,1904.00
2022-09-26T11:37:12.841Z,1816.00
2022-09-26T11:38:12.805Z,1884.00
2022-09-26T11:39:12.892Z,2528.00
2022-09-26T11:40:13.008Z,2772.00
2022-09-26T11:41:12.763Z,2376.00
2022-09-26T11:42:15.793Z,2292.00
2022-09-26T11:43:15.754Z,2140.00
2022-09-26T11:44:12.735Z,1956.00
2022-09-26T11:45:12.738Z,2216.00
2022-09-26T11:46:12.797Z,2156.00
2022-09-26T11:47:12.694Z,2388.00
2022-09-26T11:48:12.689Z,2324.00
2022-09-26T11:49:12.666Z,2876.00
2022-09-26T11:50:12.666Z,3060.00
2022-09-26T11:51:12.616Z,2728.00
2022-09-26T11:52:12.628Z,2488.00
2022-09-26T11:53:12.645Z,2740.00
2022-09-26T11:54:12.677Z,3300.00
2022-09-26T11:55:12.591Z,2904.00
2022-09-26T11:56:12.567Z,2776.00
2022-09-26T11:57:12.548Z,2576.00
2022-09-26T11:58:13.506Z,2444.00
2022-09-26T11:59:12.528Z,2896.00
2022-09-26T12:00:12.538Z,2788.00
2022-09-26T12:01:12.523Z,2884.00
2022-09-26T12:02:15.583Z,2800.00
2022-09-26T12:03:15.612Z,2552.00
2022-09-26T12:04:12.639Z,2288.00
2022-09-26T12:05:12.470Z,2208.00
2022-09-26T12:06:12.434Z,2212.00
2022-09-26T12:07:12.402Z,2300.00
2022-09-26T12:08:12.402Z,2456.00
2022-09-26T12:09:12.386Z,2656.00
2022-09-26T12:10:12.422Z,2836.00
2022-09-26T12:11:12.372Z,2732.00
2022-09-26T12:12:12.353Z,2684.00
2022-09-26T12:13:12.321Z,2968.00
2022-09-26T12:14:12.381Z,3144.00
2022-09-26T12:15:12.304Z,3148.00
2022-09-26T12:16:12.397Z,3240.00
2022-09-26T12:17:12.303Z,2752.00
2022-09-26T12:18:12.285Z,2720.00
2022-09-26T12:19:16.305Z,2704.00
2022-09-26T12:20:12.256Z,2424.00
2022-09-26T12:21:12.217Z,2696.00
2022-09-26T12:22:15.267Z,2632.00
2022-09-26T12:23:15.230Z,2320.00
2022-09-26T12:24:12.261Z,2276.00
2022-09-26T12:25:16.549Z,2044.00
2022-09-26T12:26:13.196Z,1828.00
2022-09-26T12:27:12.160Z,1684.00
2022-09-26T12:28:12.220Z,1404.00
2022-09-26T12:29:12.109Z,1340.00
2022-09-26T12:30:12.121Z,1244.00
2022-09-26T12:31:15.996Z,1564.00
2022-09-26T12:32:13.089Z,1492.00
2022-09-26T12:33:12.073Z,1492.00
2022-09-26T12:34:12.162Z,1528.00
2022-09-26T12:35:12.130Z,1460.00
2022-09-26T12:36:12.030Z,1360.00
2022-09-26T12:37:12.027Z,1316.00
2022-09-26T12:38:12.062Z,1372.00
2022-09-26T12:39:12.088Z,1392.00
2022-09-26T12:40:12.046Z,1220.00